Portada
METAR-TAF:

METAR-TAF

Aeroports :

Barranquilla, Colòmbia

latitud: 10-53N, longitud: 074-47W, altitud: 14 m

Observació

L'informe es va fer fa 38 minuts, a les 19:00 UTC
Vent 9 kt del Nord, variant entre Oest/Nord-Oest i Nord/Nord-Est
Temperatura 30°C
Humitat 66%
Pressió 1008 hPa
Visibilitat 10 km o més
sense núvols per sota de 1500 mi sense presència de cumulonimbus.

METAR: SKBQ 241900Z 35009KT 300V030 CAVOK 30/23 Q1008 NOSIG RMK A2977

Hora: 14:38 (19:38 UTC)

Pronòstic

L'informe es va fer fa 3 hores i 8 minuts, a les 16:30 UTC
Pronòstic vàlid del 24 a les 18 UTC al 25 a les 18 UTC
Vent 16 kt del Nord/Nord-Est
Escasses núvols a una alçada de 2000 ft

TAF: SKBQ 241630Z 2418/2518 02016KT FEW020 TX32/2418Z TN25/2510Z

Observacions i pronòstics meteorològics de més de 4000 aeroports (METAR i TAF).

Les estacions disponibles són els punts grocs i vermells al mapa.

Posi el ratolí al punt desitjat per veure el nom de l'estació.

Feu clic per veure les observacions i els pronòstics meteorològics.

Per canviar el mapa: feu clic els botons verds amb una creu de color negre per apropar; al botó verd amb un guió per allunyar la imatge; o en les fletxes verdes per a mapes adjacents.


METAR-TAF: